createdAt,value
2022-11-25T00:00:47.848Z,3.55
2022-11-25T00:01:47.949Z,3.48
2022-11-25T00:02:48.037Z,3.51
2022-11-25T00:03:47.825Z,3.54
2022-11-25T00:04:47.822Z,3.48
2022-11-25T00:05:47.804Z,3.54
2022-11-25T00:06:47.823Z,3.52
2022-11-25T00:07:47.845Z,3.54
2022-11-25T00:08:47.771Z,3.54
2022-11-25T00:09:47.769Z,3.60
2022-11-25T00:10:47.756Z,3.65
2022-11-25T00:11:47.749Z,3.68
2022-11-25T00:12:47.751Z,3.72
2022-11-25T00:13:47.729Z,3.68
2022-11-25T00:14:47.718Z,3.72
2022-11-25T00:15:47.707Z,3.76
2022-11-25T00:16:48.880Z,3.66
2022-11-25T00:17:48.714Z,3.78
2022-11-25T00:18:47.678Z,3.68
2022-11-25T00:19:47.660Z,3.69
2022-11-25T00:20:47.663Z,3.79
2022-11-25T00:21:47.653Z,3.69
2022-11-25T00:22:47.658Z,3.66
2022-11-25T00:23:47.628Z,3.73
2022-11-25T00:24:47.639Z,3.72
2022-11-25T00:25:47.606Z,3.79
2022-11-25T00:26:47.597Z,3.79
2022-11-25T00:27:47.578Z,3.83
2022-11-25T00:28:47.604Z,3.69
2022-11-25T00:29:47.574Z,3.76
2022-11-25T00:30:47.560Z,3.65
2022-11-25T00:31:47.625Z,3.68
2022-11-25T00:32:47.562Z,3.65
2022-11-25T00:33:47.550Z,3.61
2022-11-25T00:34:47.542Z,3.60
2022-11-25T00:35:47.519Z,3.39
2022-11-25T00:36:47.503Z,3.29
2022-11-25T00:37:47.515Z,3.13
2022-11-25T00:38:47.489Z,3.15
2022-11-25T00:39:47.495Z,3.24
2022-11-25T00:40:47.478Z,3.13
2022-11-25T00:41:47.464Z,3.14
2022-11-25T00:42:47.450Z,3.06
2022-11-25T00:43:47.433Z,3.06
2022-11-25T00:44:47.429Z,3.15
2022-11-25T00:45:47.469Z,2.99
2022-11-25T00:46:47.410Z,3.00
2022-11-25T00:47:47.404Z,2.95
2022-11-25T00:48:47.409Z,3.00
2022-11-25T00:49:47.397Z,2.95
2022-11-25T00:50:47.371Z,2.95
2022-11-25T00:51:47.356Z,3.05
2022-11-25T00:52:47.343Z,2.93
2022-11-25T00:53:47.346Z,3.00
2022-11-25T00:54:47.362Z,2.96
2022-11-25T00:55:47.317Z,2.99
2022-11-25T00:56:47.303Z,2.99
2022-11-25T00:57:47.299Z,3.05
2022-11-25T00:58:47.284Z,2.97
2022-11-25T00:59:47.274Z,2.99
2022-11-25T01:00:47.278Z,3.03
2022-11-25T01:01:47.328Z,3.11
2022-11-25T01:02:47.292Z,3.10
2022-11-25T01:03:47.245Z,3.11
2022-11-25T01:04:47.237Z,3.20
2022-11-25T01:05:47.210Z,3.08
2022-11-25T01:06:48.230Z,3.13
2022-11-25T01:07:47.293Z,3.03
2022-11-25T01:08:47.190Z,3.03
2022-11-25T01:09:47.179Z,3.03
2022-11-25T01:10:47.178Z,3.06
2022-11-25T01:11:47.161Z,2.93
2022-11-25T01:12:47.167Z,3.06
2022-11-25T01:13:47.177Z,3.03
2022-11-25T01:14:47.141Z,3.11
2022-11-25T01:15:47.119Z,3.06
2022-11-25T01:16:47.200Z,3.02
2022-11-25T01:17:47.106Z,2.96
2022-11-25T01:18:47.113Z,3.05
2022-11-25T01:19:47.095Z,2.99
2022-11-25T01:20:47.076Z,2.95
2022-11-25T01:21:47.059Z,2.99
2022-11-25T01:22:47.075Z,2.89
2022-11-25T01:23:47.034Z,2.96
2022-11-25T01:24:47.034Z,2.97
2022-11-25T01:25:47.021Z,3.00
2022-11-25T01:26:47.014Z,2.96
2022-11-25T01:27:47.025Z,2.96
2022-11-25T01:28:46.995Z,2.93
2022-11-25T01:29:46.983Z,2.85
2022-11-25T01:30:46.984Z,2.93
2022-11-25T01:31:47.033Z,2.97
2022-11-25T01:32:46.957Z,3.02
2022-11-25T01:33:46.961Z,2.95
2022-11-25T01:34:46.958Z,3.00
2022-11-25T01:35:46.921Z,2.99
2022-11-25T01:36:46.915Z,3.00
2022-11-25T01:37:46.919Z,3.08
2022-11-25T01:38:46.902Z,3.00
2022-11-25T01:39:46.918Z,3.13
2022-11-25T01:40:46.882Z,3.17
2022-11-25T01:41:46.878Z,3.17
2022-11-25T01:42:46.870Z,3.26
2022-11-25T01:43:46.857Z,3.21
2022-11-25T01:44:46.851Z,3.20
2022-11-25T01:45:46.923Z,3.21
2022-11-25T01:46:46.840Z,3.23
2022-11-25T01:47:46.811Z,3.18
2022-11-25T01:48:46.803Z,3.15
2022-11-25T01:49:46.797Z,3.03
2022-11-25T01:50:46.797Z,3.10
2022-11-25T01:51:46.801Z,3.11
2022-11-25T01:52:46.769Z,3.08
2022-11-25T01:53:46.760Z,2.95
2022-11-25T01:54:46.773Z,3.00
2022-11-25T01:55:46.748Z,2.89
2022-11-25T01:56:46.728Z,2.95
2022-11-25T01:57:46.726Z,3.00
2022-11-25T01:58:46.722Z,2.92
2022-11-25T01:59:46.722Z,3.05
2022-11-25T02:00:46.749Z,2.97
2022-11-25T02:01:46.691Z,3.02
2022-11-25T02:02:46.824Z,3.10
2022-11-25T02:03:46.691Z,3.05
2022-11-25T02:04:46.667Z,3.14
2022-11-25T02:05:46.646Z,3.24
2022-11-25T02:06:46.638Z,3.20
2022-11-25T02:07:46.709Z,3.26
2022-11-25T02:08:47.631Z,3.21
2022-11-25T02:09:46.607Z,3.24
2022-11-25T02:10:46.598Z,3.26
2022-11-25T02:11:46.602Z,3.18
2022-11-25T02:12:46.609Z,3.24
2022-11-25T02:13:46.573Z,3.32
2022-11-25T02:14:46.570Z,3.39
2022-11-25T02:15:46.555Z,3.29
2022-11-25T02:16:46.620Z,3.36
2022-11-25T02:17:46.555Z,3.21
2022-11-25T02:18:46.522Z,3.32
2022-11-25T02:19:46.530Z,3.35
2022-11-25T02:20:46.513Z,3.39
2022-11-25T02:21:46.492Z,3.26
2022-11-25T02:22:46.539Z,3.35
2022-11-25T02:23:46.510Z,3.39
2022-11-25T02:24:46.468Z,3.43
2022-11-25T02:25:46.473Z,3.33
2022-11-25T02:26:46.445Z,3.40
2022-11-25T02:27:46.442Z,3.40
2022-11-25T02:28:46.423Z,3.36
2022-11-25T02:29:46.423Z,3.42
2022-11-25T02:30:46.425Z,3.36
2022-11-25T02:31:46.487Z,3.36
2022-11-25T02:32:46.384Z,3.31
2022-11-25T02:33:46.408Z,3.23
2022-11-25T02:34:46.373Z,3.21
2022-11-25T02:35:46.352Z,3.17
2022-11-25T02:36:46.353Z,3.06
2022-11-25T02:37:46.336Z,3.13
2022-11-25T02:38:46.345Z,3.08
2022-11-25T02:39:46.331Z,3.08
2022-11-25T02:40:46.331Z,3.05
2022-11-25T02:41:46.313Z,3.14
2022-11-25T02:42:46.318Z,2.96
2022-11-25T02:43:46.292Z,2.99
2022-11-25T02:44:46.271Z,3.08
2022-11-25T02:45:46.409Z,3.15
2022-11-25T02:46:46.266Z,3.14
2022-11-25T02:47:46.243Z,3.05
2022-11-25T02:49:08.063Z,3.00
2022-11-25T02:49:48.246Z,3.14
2022-11-25T02:50:46.249Z,3.05
2022-11-25T02:51:46.229Z,3.02
2022-11-25T02:52:46.203Z,3.14
2022-11-25T02:53:46.209Z,3.20
2022-11-25T02:54:46.200Z,3.03
2022-11-25T02:55:46.175Z,3.10
2022-11-25T02:56:46.180Z,3.15
2022-11-25T02:57:46.146Z,3.17
2022-11-25T02:58:46.159Z,3.10
2022-11-25T02:59:46.142Z,3.06
2022-11-25T03:00:46.185Z,3.14
2022-11-25T03:01:46.182Z,3.03
2022-11-25T03:02:46.113Z,3.14
2022-11-25T03:03:46.111Z,3.08
2022-11-25T03:04:46.089Z,3.00
2022-11-25T03:05:46.074Z,2.96
2022-11-25T03:06:46.111Z,3.03
2022-11-25T03:07:46.182Z,3.03
2022-11-25T03:08:46.073Z,3.03
2022-11-25T03:09:46.036Z,3.03
2022-11-25T03:10:46.027Z,2.95
2022-11-25T03:11:45.999Z,2.96
2022-11-25T03:13:17.980Z,2.99
2022-11-25T03:13:46.084Z,2.85
2022-11-25T03:14:46.056Z,2.95
2022-11-25T03:15:46.030Z,2.82
2022-11-25T03:16:46.156Z,2.85
2022-11-25T03:17:46.052Z,2.77
2022-11-25T03:18:46.020Z,2.82
2022-11-25T03:19:45.973Z,2.79
2022-11-25T03:20:45.986Z,2.81
2022-11-25T03:21:45.985Z,2.74
2022-11-25T03:22:45.988Z,2.81
2022-11-25T03:23:46.024Z,2.78
2022-11-25T03:24:45.978Z,2.74
2022-11-25T03:25:46.002Z,2.81
2022-11-25T03:26:45.994Z,2.89
2022-11-25T03:27:45.931Z,2.82
2022-11-25T03:28:45.967Z,2.79
2022-11-25T03:29:45.909Z,2.77
2022-11-25T03:30:45.923Z,2.87
2022-11-25T03:31:45.980Z,2.85
2022-11-25T03:32:45.932Z,2.87
2022-11-25T03:33:45.875Z,2.87
2022-11-25T03:34:45.852Z,2.89
2022-11-25T03:35:45.949Z,2.85
2022-11-25T03:36:45.905Z,2.93
2022-11-25T03:37:45.844Z,2.87
2022-11-25T03:38:45.839Z,2.82
2022-11-25T03:39:45.831Z,2.85
2022-11-25T03:40:46.787Z,2.87
2022-11-25T03:41:45.780Z,2.67
2022-11-25T03:42:45.841Z,2.59
2022-11-25T03:43:45.794Z,2.54
2022-11-25T03:44:45.785Z,2.57
2022-11-25T03:45:45.790Z,2.57
2022-11-25T03:46:45.726Z,2.57
2022-11-25T03:47:45.740Z,2.66
2022-11-25T03:48:45.707Z,2.69
2022-11-25T03:49:45.719Z,2.66
2022-11-25T03:50:45.733Z,2.54
2022-11-25T03:51:45.687Z,2.57
2022-11-25T03:52:45.753Z,2.57
2022-11-25T03:53:45.778Z,2.57
2022-11-25T03:54:45.641Z,2.53
2022-11-25T03:55:45.657Z,2.60
2022-11-25T03:56:45.642Z,2.49
2022-11-25T03:57:45.681Z,2.57
2022-11-25T03:58:45.626Z,2.54
2022-11-25T03:59:45.619Z,2.38
2022-11-25T04:00:45.626Z,2.45
2022-11-25T04:01:45.624Z,2.39
2022-11-25T04:02:45.674Z,2.49
2022-11-25T04:03:45.578Z,2.48
2022-11-25T04:04:45.583Z,2.41
2022-11-25T04:05:45.578Z,2.53
2022-11-25T04:06:45.548Z,2.53
2022-11-25T04:07:45.620Z,2.43
2022-11-25T04:08:45.568Z,2.46
2022-11-25T04:09:45.504Z,2.53
2022-11-25T04:10:45.549Z,2.46
2022-11-25T04:11:45.461Z,2.56
2022-11-25T04:12:45.530Z,2.56
2022-11-25T04:13:46.503Z,2.60
2022-11-25T04:14:45.486Z,2.63
2022-11-25T04:15:45.525Z,2.67
2022-11-25T04:16:45.529Z,2.60
2022-11-25T04:17:45.432Z,2.71
2022-11-25T04:18:45.458Z,2.66
2022-11-25T04:19:45.460Z,2.66
2022-11-25T04:20:45.411Z,2.67
2022-11-25T04:21:49.384Z,2.71
2022-11-25T04:22:47.417Z,2.72
2022-11-25T04:23:45.449Z,2.72
2022-11-25T04:24:45.389Z,2.71
2022-11-25T04:25:45.338Z,2.71
2022-11-25T04:26:45.383Z,2.82
2022-11-25T04:27:45.350Z,2.78
2022-11-25T04:28:45.338Z,2.75
2022-11-25T04:29:45.350Z,2.82
2022-11-25T04:30:45.349Z,2.84
2022-11-25T04:31:45.311Z,2.87
2022-11-25T04:32:45.325Z,2.87
2022-11-25T04:33:51.088Z,2.90
2022-11-25T04:34:47.294Z,2.82
2022-11-25T04:35:45.317Z,2.78
2022-11-25T04:36:45.312Z,2.92
2022-11-25T04:37:45.266Z,2.84
2022-11-25T04:38:45.259Z,2.82
2022-11-25T04:39:45.278Z,2.85
2022-11-25T04:40:45.220Z,2.81
2022-11-25T04:41:45.250Z,2.85
2022-11-25T04:42:45.246Z,2.82
2022-11-25T04:43:45.188Z,2.77
2022-11-25T04:45:01.136Z,2.71
2022-11-25T04:46:12.619Z,2.74
2022-11-25T04:46:47.206Z,2.71
2022-11-25T04:47:45.148Z,2.74
2022-11-25T04:48:45.150Z,2.66
2022-11-25T04:49:45.139Z,2.61
2022-11-25T04:50:45.179Z,2.74
2022-11-25T04:51:45.111Z,2.75
2022-11-25T04:52:45.147Z,2.78
2022-11-25T04:53:45.106Z,2.79
2022-11-25T04:54:45.076Z,2.78
2022-11-25T04:55:45.044Z,2.81
2022-11-25T04:56:45.042Z,2.89
2022-11-25T04:57:45.028Z,2.75
2022-11-25T04:58:45.080Z,2.87
2022-11-25T04:59:45.003Z,2.84
2022-11-25T05:00:45.033Z,2.78
2022-11-25T05:01:45.077Z,2.93
2022-11-25T05:02:45.076Z,2.82
2022-11-25T05:03:48.927Z,2.82
2022-11-25T05:04:46.983Z,2.79
2022-11-25T05:05:45.001Z,2.92
2022-11-25T05:06:44.970Z,2.84
2022-11-25T05:07:46.017Z,2.75
2022-11-25T05:08:44.961Z,2.77
2022-11-25T05:09:44.923Z,2.74
2022-11-25T05:10:44.915Z,2.74
2022-11-25T05:11:44.905Z,2.71
2022-11-25T05:12:44.883Z,2.67
2022-11-25T05:13:44.933Z,2.54
2022-11-25T05:14:44.863Z,2.63
2022-11-25T05:15:44.843Z,2.57
2022-11-25T05:16:44.853Z,2.46
2022-11-25T05:17:44.865Z,2.64
2022-11-25T05:18:44.826Z,2.52
2022-11-25T05:19:44.866Z,2.53
2022-11-25T05:20:44.837Z,2.66
2022-11-25T05:21:45.792Z,2.63
2022-11-25T05:22:44.801Z,2.63
2022-11-25T05:23:44.801Z,2.56
2022-11-25T05:24:44.777Z,2.60
2022-11-25T05:25:44.790Z,2.66
2022-11-25T05:26:44.740Z,2.57
2022-11-25T05:27:45.744Z,2.67
2022-11-25T05:28:44.749Z,2.74
2022-11-25T05:29:44.731Z,2.71
2022-11-25T05:30:44.751Z,2.71
2022-11-25T05:31:44.766Z,2.64
2022-11-25T05:32:44.723Z,2.64
2022-11-25T05:33:44.694Z,2.72
2022-11-25T05:34:44.704Z,2.71
2022-11-25T05:35:44.692Z,2.79
2022-11-25T05:36:44.695Z,2.78
2022-11-25T05:37:44.650Z,2.87
2022-11-25T05:38:44.614Z,2.85
2022-11-25T05:39:44.608Z,2.84
2022-11-25T05:40:44.620Z,2.92
2022-11-25T05:41:44.597Z,2.97
2022-11-25T05:42:44.625Z,2.99
2022-11-25T05:43:44.571Z,2.96
2022-11-25T05:44:44.570Z,2.96
2022-11-25T05:45:44.622Z,3.02
2022-11-25T05:46:44.558Z,2.99
2022-11-25T05:47:44.578Z,2.96
2022-11-25T05:48:44.544Z,3.00
2022-11-25T05:49:44.520Z,2.93
2022-11-25T05:50:44.502Z,2.90
2022-11-25T05:51:44.511Z,2.99
2022-11-25T05:52:44.509Z,2.93
2022-11-25T05:53:44.538Z,3.02
2022-11-25T05:54:44.484Z,3.05
2022-11-25T05:55:44.492Z,2.97
2022-11-25T05:56:44.445Z,3.06
2022-11-25T05:57:44.483Z,3.15
2022-11-25T05:58:44.505Z,3.17
2022-11-25T05:59:44.435Z,3.14
2022-11-25T06:00:44.420Z,3.17
2022-11-25T06:01:44.422Z,3.20
2022-11-25T06:02:44.559Z,3.15
2022-11-25T06:03:44.438Z,3.32
2022-11-25T06:04:44.399Z,3.18
2022-11-25T06:05:44.377Z,3.24
2022-11-25T06:06:44.368Z,3.21
2022-11-25T06:07:44.423Z,3.15
2022-11-25T06:08:44.339Z,3.24
2022-11-25T06:09:44.393Z,3.17
2022-11-25T06:10:44.313Z,3.26
2022-11-25T06:11:44.336Z,3.24
2022-11-25T06:12:44.312Z,3.21
2022-11-25T06:13:44.310Z,3.20
2022-11-25T06:14:44.361Z,3.26
2022-11-25T06:15:44.346Z,3.15
2022-11-25T06:16:44.323Z,3.14
2022-11-25T06:17:44.266Z,3.29
2022-11-25T06:18:44.256Z,3.29
2022-11-25T06:19:44.260Z,3.26
2022-11-25T06:20:44.261Z,3.35
2022-11-25T06:21:44.242Z,3.23
2022-11-25T06:22:44.237Z,3.21
2022-11-25T06:23:44.196Z,3.24
2022-11-25T06:24:46.523Z,3.23
2022-11-25T06:25:45.240Z,3.18
2022-11-25T06:26:44.144Z,3.11
2022-11-25T06:28:11.439Z,3.17
2022-11-25T06:28:46.156Z,3.33
2022-11-25T06:29:44.158Z,3.20
2022-11-25T06:30:44.216Z,3.24
2022-11-25T06:31:44.229Z,3.21
2022-11-25T06:32:44.127Z,3.20
2022-11-25T06:33:45.105Z,3.23
2022-11-25T06:34:44.085Z,3.24
2022-11-25T06:35:44.079Z,3.20
2022-11-25T06:36:44.047Z,3.31
2022-11-25T06:37:44.097Z,3.28
2022-11-25T06:38:44.045Z,3.32
2022-11-25T06:39:44.057Z,3.35
2022-11-25T06:40:44.048Z,3.33
2022-11-25T06:41:44.013Z,3.43
2022-11-25T06:42:44.003Z,3.45
2022-11-25T06:43:44.003Z,3.45
2022-11-25T06:44:44.015Z,3.43
2022-11-25T06:45:43.974Z,3.58
2022-11-25T06:46:44.051Z,3.54
2022-11-25T06:47:43.951Z,3.60
2022-11-25T06:48:43.964Z,3.55
2022-11-25T06:49:43.999Z,3.60
2022-11-25T06:50:43.921Z,3.57
2022-11-25T06:51:43.932Z,3.54
2022-11-25T06:52:43.905Z,3.45
2022-11-25T06:53:43.933Z,3.58
2022-11-25T06:54:43.911Z,3.47
2022-11-25T06:55:43.899Z,3.52
2022-11-25T06:56:43.864Z,3.54
2022-11-25T06:57:44.889Z,3.54
2022-11-25T06:58:43.861Z,3.60
2022-11-25T06:59:43.844Z,3.60
2022-11-25T07:00:43.853Z,3.58
2022-11-25T07:01:43.846Z,3.52
2022-11-25T07:02:48.174Z,3.48
2022-11-25T07:03:44.805Z,3.58
2022-11-25T07:04:43.785Z,3.45
2022-11-25T07:05:43.808Z,3.52
2022-11-25T07:06:43.836Z,3.51
2022-11-25T07:07:43.824Z,3.58
2022-11-25T07:08:44.727Z,3.47
2022-11-25T07:09:43.756Z,3.57
2022-11-25T07:10:43.728Z,3.66
2022-11-25T07:11:43.775Z,3.61
2022-11-25T07:12:43.765Z,3.60
2022-11-25T07:13:43.694Z,3.65
2022-11-25T07:14:43.698Z,3.68
2022-11-25T07:15:43.794Z,3.73
2022-11-25T07:16:44.064Z,3.72
2022-11-25T07:17:44.679Z,3.76
2022-11-25T07:18:43.632Z,3.61
2022-11-25T07:19:43.633Z,3.75
2022-11-25T07:20:43.651Z,3.75
2022-11-25T07:21:43.635Z,3.75
2022-11-25T07:22:43.644Z,3.83
2022-11-25T07:23:43.591Z,3.90
2022-11-25T07:24:43.623Z,3.87
2022-11-25T07:25:43.592Z,3.84
2022-11-25T07:26:43.604Z,3.80
2022-11-25T07:27:43.565Z,3.86
2022-11-25T07:28:43.727Z,3.90
2022-11-25T07:30:03.123Z,3.93
2022-11-25T07:31:45.533Z,3.93
2022-11-25T07:32:43.521Z,4.02
2022-11-25T07:33:43.608Z,4.08
2022-11-25T07:34:43.506Z,4.14
2022-11-25T07:35:43.537Z,4.12
2022-11-25T07:36:43.489Z,4.16
2022-11-25T07:37:43.471Z,4.18
2022-11-25T07:38:46.547Z,4.15
2022-11-25T07:39:44.504Z,4.22
2022-11-25T07:40:43.446Z,4.15
2022-11-25T07:41:44.488Z,4.23
2022-11-25T07:42:43.496Z,4.23
2022-11-25T07:43:43.409Z,4.29
2022-11-25T07:44:43.419Z,4.08
2022-11-25T07:45:43.387Z,4.12
2022-11-25T07:46:43.408Z,4.11
2022-11-25T07:47:43.393Z,4.04
2022-11-25T07:48:43.344Z,4.11
2022-11-25T07:49:43.332Z,4.08
2022-11-25T07:50:43.381Z,4.15
2022-11-25T07:51:43.376Z,4.20
2022-11-25T07:52:43.329Z,4.23
2022-11-25T07:53:43.321Z,4.26
2022-11-25T07:54:43.341Z,4.33
2022-11-25T07:55:43.286Z,4.34
2022-11-25T07:56:43.288Z,4.41
2022-11-25T07:57:43.278Z,4.42
2022-11-25T07:58:46.094Z,4.42
2022-11-25T07:59:44.255Z,4.45
2022-11-25T08:00:43.238Z,4.42
2022-11-25T08:01:43.317Z,4.42
2022-11-25T08:02:43.282Z,4.41
2022-11-25T08:03:43.254Z,4.33
2022-11-25T08:04:43.202Z,4.33
2022-11-25T08:05:43.191Z,4.37
2022-11-25T08:06:43.192Z,4.37
2022-11-25T08:07:43.200Z,4.30
2022-11-25T08:08:43.174Z,4.33
2022-11-25T08:09:43.138Z,4.36
2022-11-25T08:10:43.149Z,4.47
2022-11-25T08:11:43.196Z,4.44
2022-11-25T08:12:43.136Z,4.50
2022-11-25T08:13:43.125Z,4.50
2022-11-25T08:14:43.094Z,4.52
2022-11-25T08:15:43.156Z,4.65
2022-11-25T08:16:43.135Z,4.62
2022-11-25T08:17:43.076Z,4.65
2022-11-25T08:18:43.078Z,4.73
2022-11-25T08:19:43.116Z,4.85
2022-11-25T08:20:43.074Z,4.77
2022-11-25T08:21:43.076Z,4.86
2022-11-25T08:22:43.042Z,4.78
2022-11-25T08:23:43.042Z,4.69
2022-11-25T08:24:43.024Z,4.75
2022-11-25T08:25:47.443Z,4.75
2022-11-25T08:26:45.001Z,4.69
2022-11-25T08:27:42.951Z,4.77
2022-11-25T08:28:42.967Z,4.67
2022-11-25T08:29:43.012Z,4.78
2022-11-25T08:30:42.939Z,4.77
2022-11-25T08:31:43.067Z,4.69
2022-11-25T08:32:42.917Z,4.82
2022-11-25T08:33:42.896Z,4.73
2022-11-25T08:34:42.982Z,4.63
2022-11-25T08:35:42.888Z,4.82
2022-11-25T08:36:47.931Z,4.62
2022-11-25T08:37:44.870Z,4.72
2022-11-25T08:38:42.880Z,4.51
2022-11-25T08:39:58.461Z,4.60
2022-11-25T08:40:44.875Z,4.65
2022-11-25T08:41:42.861Z,4.67
2022-11-25T08:42:42.827Z,4.70
2022-11-25T08:43:42.828Z,4.82
2022-11-25T08:44:42.810Z,4.84
2022-11-25T08:45:42.846Z,4.72
2022-11-25T08:46:42.883Z,4.70
2022-11-25T08:47:42.762Z,4.84
2022-11-25T08:48:42.755Z,4.75
2022-11-25T08:49:43.014Z,4.89
2022-11-25T08:50:42.721Z,4.96
2022-11-25T08:51:42.763Z,4.97
2022-11-25T08:52:42.723Z,4.97
2022-11-25T08:53:42.752Z,4.85
2022-11-25T08:54:42.727Z,4.88
2022-11-25T08:55:42.706Z,5.03
2022-11-25T08:56:42.687Z,5.09
2022-11-25T08:57:42.675Z,5.09
2022-11-25T08:58:42.698Z,5.02
2022-11-25T08:59:42.619Z,5.13
2022-11-25T09:00:42.604Z,5.18
2022-11-25T09:01:42.673Z,5.22
2022-11-25T09:02:42.697Z,5.28
2022-11-25T09:03:42.587Z,5.25
2022-11-25T09:04:42.603Z,5.30
2022-11-25T09:05:42.580Z,5.35
2022-11-25T09:06:42.557Z,5.42
2022-11-25T09:07:42.631Z,5.49
2022-11-25T09:08:42.529Z,5.53
2022-11-25T09:09:42.546Z,5.63
2022-11-25T09:10:42.529Z,5.65
2022-11-25T09:11:42.589Z,5.71
2022-11-25T09:12:42.494Z,5.86
2022-11-25T09:13:42.553Z,5.81
2022-11-25T09:15:14.389Z,5.85
2022-11-25T09:15:42.492Z,5.89
2022-11-25T09:16:42.596Z,5.91
2022-11-25T09:17:42.452Z,5.90
2022-11-25T09:18:42.428Z,5.97
2022-11-25T09:19:42.421Z,5.99
2022-11-25T09:20:42.400Z,5.96
2022-11-25T09:21:42.419Z,5.89
2022-11-25T09:22:42.415Z,5.90
2022-11-25T09:23:42.377Z,5.83
2022-11-25T09:24:42.354Z,5.89
2022-11-25T09:25:42.358Z,5.90
2022-11-25T09:26:42.347Z,5.96
2022-11-25T09:27:42.353Z,5.85
2022-11-25T09:28:42.323Z,5.86
2022-11-25T09:29:42.309Z,5.90
2022-11-25T09:30:42.313Z,5.93
2022-11-25T09:31:42.340Z,5.76
2022-11-25T09:32:42.285Z,5.93
2022-11-25T09:33:42.290Z,5.90
2022-11-25T09:34:42.269Z,5.96
2022-11-25T09:35:42.251Z,6.12
2022-11-25T09:36:42.257Z,6.15
2022-11-25T09:37:42.251Z,6.22
2022-11-25T09:38:43.453Z,6.12
2022-11-25T09:39:43.225Z,6.08
2022-11-25T09:40:42.197Z,6.09
2022-11-25T09:41:42.239Z,6.14
2022-11-25T09:42:42.193Z,6.15
2022-11-25T09:43:42.167Z,6.22
2022-11-25T09:44:42.815Z,6.17
2022-11-25T09:45:43.150Z,6.12
2022-11-25T09:46:42.189Z,6.09
2022-11-25T09:47:46.840Z,6.14
2022-11-25T09:48:43.136Z,6.00
2022-11-25T09:49:42.106Z,6.03
2022-11-25T09:50:42.105Z,6.03
2022-11-25T09:51:42.093Z,6.06
2022-11-25T09:52:42.100Z,6.00
2022-11-25T09:53:42.104Z,6.04
2022-11-25T09:54:42.096Z,6.09
2022-11-25T09:55:42.049Z,6.21
2022-11-25T09:56:42.120Z,6.08
2022-11-25T09:57:42.030Z,6.12
2022-11-25T09:58:42.011Z,6.25
2022-11-25T09:59:42.023Z,6.19
2022-11-25T10:00:42.041Z,6.27
2022-11-25T10:01:42.040Z,6.30
2022-11-25T10:02:42.104Z,6.22
2022-11-25T10:03:42.055Z,6.18
2022-11-25T10:04:41.990Z,6.14
2022-11-25T10:05:41.955Z,6.19
2022-11-25T10:06:42.035Z,6.19
2022-11-25T10:07:41.979Z,6.19
2022-11-25T10:08:41.915Z,6.15
2022-11-25T10:09:41.923Z,6.22
2022-11-25T10:10:41.909Z,6.14
2022-11-25T10:11:41.887Z,6.19
2022-11-25T10:12:41.906Z,6.36
2022-11-25T10:13:41.894Z,6.38
2022-11-25T10:14:41.876Z,6.34
2022-11-25T10:15:41.928Z,6.38
2022-11-25T10:16:43.964Z,6.36
2022-11-25T10:17:41.839Z,6.48
2022-11-25T10:18:41.845Z,6.51
2022-11-25T10:19:41.817Z,6.48
2022-11-25T10:20:41.813Z,6.54
2022-11-25T10:21:41.790Z,6.43
2022-11-25T10:22:41.788Z,6.41
2022-11-25T10:23:41.803Z,6.61
2022-11-25T10:24:41.771Z,6.51
2022-11-25T10:25:41.771Z,6.43
2022-11-25T10:26:41.742Z,6.61
2022-11-25T10:27:41.738Z,6.52
2022-11-25T10:28:41.721Z,6.58
2022-11-25T10:29:41.755Z,6.62
2022-11-25T10:30:41.702Z,6.56
2022-11-25T10:31:41.741Z,6.62
2022-11-25T10:32:41.672Z,6.67
2022-11-25T10:33:41.677Z,6.62
2022-11-25T10:34:41.683Z,6.58
2022-11-25T10:35:41.661Z,6.70
2022-11-25T10:36:41.640Z,6.67
2022-11-25T10:37:41.640Z,6.64
2022-11-25T10:38:41.627Z,6.69
2022-11-25T10:39:41.663Z,6.73
2022-11-25T10:40:41.610Z,6.81
2022-11-25T10:41:41.589Z,6.88
2022-11-25T10:42:41.606Z,6.85
2022-11-25T10:43:41.598Z,6.85
2022-11-25T10:44:41.584Z,6.97
2022-11-25T10:45:41.552Z,7.02
2022-11-25T10:47:11.697Z,6.91
2022-11-25T10:47:43.633Z,6.98
2022-11-25T10:48:44.309Z,7.05
2022-11-25T10:49:42.513Z,7.10
2022-11-25T10:50:41.503Z,6.99
2022-11-25T10:51:41.498Z,6.95
2022-11-25T10:52:41.498Z,7.10
2022-11-25T10:53:41.489Z,7.10
2022-11-25T10:54:41.722Z,7.06
2022-11-25T10:55:41.467Z,7.10
2022-11-25T10:56:41.496Z,7.07
2022-11-25T10:57:41.435Z,7.09
2022-11-25T10:58:41.432Z,7.06
2022-11-25T10:59:41.424Z,7.16
2022-11-25T11:00:41.430Z,7.13
2022-11-25T11:01:41.418Z,7.09
2022-11-25T11:02:41.444Z,7.15
2022-11-25T11:03:41.396Z,7.15
2022-11-25T11:04:41.389Z,7.12
2022-11-25T11:05:46.386Z,7.27
2022-11-25T11:06:43.347Z,7.24
2022-11-25T11:07:41.388Z,7.12
2022-11-25T11:08:41.360Z,7.25
2022-11-25T11:09:41.311Z,7.17
2022-11-25T11:10:41.300Z,7.28
2022-11-25T11:11:41.301Z,7.35
2022-11-25T11:12:41.280Z,7.27
2022-11-25T11:13:41.299Z,7.30
2022-11-25T11:14:41.282Z,7.34
2022-11-25T11:15:41.444Z,7.39
2022-11-25T11:16:41.312Z,7.34
2022-11-25T11:17:41.240Z,7.46
2022-11-25T11:18:41.216Z,7.48
2022-11-25T11:19:41.217Z,7.39
2022-11-25T11:20:41.203Z,7.50
2022-11-25T11:21:41.252Z,7.58
2022-11-25T11:22:41.192Z,7.58
2022-11-25T11:23:41.177Z,7.50
2022-11-25T11:24:41.159Z,7.58
2022-11-25T11:25:41.179Z,7.57
2022-11-25T11:26:41.138Z,7.49
2022-11-25T11:27:41.122Z,7.49
2022-11-25T11:28:41.132Z,7.52
2022-11-25T11:29:41.108Z,7.60
2022-11-25T11:30:41.113Z,7.57
2022-11-25T11:31:41.153Z,7.58
2022-11-25T11:32:41.075Z,7.60
2022-11-25T11:33:41.088Z,7.48
2022-11-25T11:34:42.066Z,7.53
2022-11-25T11:35:42.108Z,7.42
2022-11-25T11:36:41.034Z,7.58
2022-11-25T11:37:41.032Z,7.55
2022-11-25T11:38:41.027Z,7.46
2022-11-25T11:39:43.104Z,7.40
2022-11-25T11:40:41.002Z,7.52
2022-11-25T11:41:40.991Z,7.46
2022-11-25T11:42:40.976Z,7.53
2022-11-25T11:43:40.995Z,7.68
2022-11-25T11:44:40.961Z,7.75
2022-11-25T11:45:40.951Z,7.71
2022-11-25T11:46:40.987Z,7.80
2022-11-25T11:47:40.975Z,7.77
2022-11-25T11:48:40.918Z,7.95
2022-11-25T11:49:40.916Z,7.93
2022-11-25T11:50:40.902Z,7.85
2022-11-25T11:51:40.901Z,8.05
2022-11-25T11:52:40.904Z,8.04
2022-11-25T11:53:40.873Z,8.15
2022-11-25T11:54:40.850Z,8.10
2022-11-25T11:55:40.862Z,8.10
2022-11-25T11:56:40.834Z,8.26
2022-11-25T11:57:40.834Z,8.22
2022-11-25T11:58:40.834Z,8.26
2022-11-25T11:59:40.847Z,8.28
2022-11-25T12:00:40.811Z,8.30
2022-11-25T12:01:40.831Z,8.26
2022-11-25T12:02:40.935Z,8.30
2022-11-25T12:03:40.838Z,8.22
2022-11-25T12:04:40.786Z,8.12
2022-11-25T12:05:40.754Z,8.18
2022-11-25T12:06:40.754Z,8.11
2022-11-25T12:07:40.843Z,8.12
2022-11-25T12:08:40.714Z,8.04
2022-11-25T12:09:40.724Z,8.22
2022-11-25T12:10:40.774Z,8.02
2022-11-25T12:11:40.704Z,7.93
2022-11-25T12:12:40.709Z,7.93
2022-11-25T12:13:40.679Z,8.02
2022-11-25T12:14:40.666Z,7.97
2022-11-25T12:15:40.687Z,8.00
2022-11-25T12:16:40.732Z,8.01
2022-11-25T12:17:40.658Z,8.00
2022-11-25T12:18:40.643Z,7.90
2022-11-25T12:19:40.618Z,7.90
2022-11-25T12:20:40.635Z,7.90
2022-11-25T12:21:42.220Z,7.89
2022-11-25T12:22:41.581Z,7.97
2022-11-25T12:23:40.567Z,8.05
2022-11-25T12:24:40.579Z,8.02
2022-11-25T12:25:40.561Z,7.95
2022-11-25T12:26:40.575Z,8.11
2022-11-25T12:27:40.551Z,8.10
2022-11-25T12:28:40.557Z,8.08
2022-11-25T12:29:40.541Z,8.05
2022-11-25T12:30:40.510Z,8.02
2022-11-25T12:31:40.606Z,8.08
2022-11-25T12:32:40.550Z,8.08
2022-11-25T12:33:40.494Z,8.11
2022-11-25T12:34:40.485Z,8.11
2022-11-25T12:35:40.464Z,8.05
2022-11-25T12:36:40.483Z,8.01
2022-11-25T12:37:40.502Z,8.04
2022-11-25T12:38:40.417Z,8.10
2022-11-25T12:39:40.449Z,8.05
2022-11-25T12:40:40.420Z,7.90
2022-11-25T12:41:40.441Z,7.97
2022-11-25T12:42:40.374Z,7.97
2022-11-25T12:43:41.389Z,8.07
2022-11-25T12:44:40.403Z,7.90
2022-11-25T12:45:40.421Z,7.93
2022-11-25T12:46:40.361Z,7.80
2022-11-25T12:47:40.375Z,7.83
2022-11-25T12:48:40.325Z,7.82
2022-11-25T12:49:40.336Z,7.87
2022-11-25T12:50:40.326Z,7.90
2022-11-25T12:51:40.309Z,7.90
2022-11-25T12:52:40.290Z,7.93
2022-11-25T12:53:40.288Z,8.01
2022-11-25T12:54:40.281Z,7.93
2022-11-25T12:55:40.328Z,7.92
2022-11-25T12:56:40.249Z,8.02
2022-11-25T12:57:44.413Z,7.97
2022-11-25T12:58:42.332Z,7.98
2022-11-25T12:59:40.238Z,8.01
2022-11-25T13:00:41.953Z,7.95
2022-11-25T13:01:41.365Z,7.97
2022-11-25T13:02:40.242Z,8.08
2022-11-25T13:03:40.178Z,8.16
2022-11-25T13:04:40.197Z,8.19
2022-11-25T13:05:41.161Z,8.20
2022-11-25T13:06:41.181Z,8.18
2022-11-25T13:07:40.209Z,8.28
2022-11-25T13:08:40.152Z,8.40
2022-11-25T13:09:40.115Z,8.43
2022-11-25T13:10:40.119Z,8.47
2022-11-25T13:11:40.388Z,8.58
2022-11-25T13:12:40.468Z,8.55
2022-11-25T13:13:40.422Z,8.55
2022-11-25T13:14:41.144Z,8.56
2022-11-25T13:15:40.483Z,8.58
2022-11-25T13:16:40.456Z,8.66
2022-11-25T13:17:40.122Z,8.65
2022-11-25T13:18:40.028Z,8.59
2022-11-25T13:19:40.050Z,8.70